PWSweather.com
Personal Weather Stations
Station Observations
AKOUDA4022
Sousse, AkoudaTN 4022

SousseAkoudaTN 4022

Lat: 35.881801, Lon: 10.566187

Elevation: 200

Station Type: TFA Nexus

http://www.soussewetter.de/meteo/

Latest ConditionsUpdated 11:30:00 PM GMT+01:01 Friday, Jul 21, 2017
Currently Today's Max Today's Min Today's Average
Temperature 82.6°F28.1°C 94.3°F34.6°C 78.4°F25.8°C 85.8°F29.9°C
Dew Point 67.3°F19.6°C 75.1°F23.9°C 66.9°F19.4°C 71.8°F22.1°C
Winds 1.6 mph W2.6 kmh W 7.4 mph ESE11.9 kmh ESE - 3.2 mph 5.1 kmh
Wind Gusts 2.5 mph4.0 kmh 18.4 mph29.6 kmh - -
Humidity 60% 77% 42% 64%
Pressure 30.16 in1021.3 mb 30.16 in1021.3 mb 30.07 in1018.3 mb -
Hour Temp Dew Point Humidity Winds Wind Gusts Pressure Precip Precip Rate Daily Precip Total
11:30 PM 82.6°F28.1°C 67.3°F19.6°C 60% 1.6 mph W2.6 kmh W 2.5 mph4.0 kmh 30.16 in1021.3 mb 0.00 in0.0 mm 0.00 in0.0 mm 0.00 in0.0 mm
11:20 PM 82.8°F28.2°C 66.9°F19.4°C 59% 1.9 mph WSW3.1 kmh WSW 2.5 mph4.0 kmh 30.16 in1021.3 mb 0.00 in0.0 mm 0.00 in0.0 mm 0.00 in0.0 mm
11:10 PM 82.9°F28.3°C 67.6°F19.8°C 60% 1.7 mph SW2.7 kmh SW 1.1 mph1.8 kmh 30.16 in1021.3 mb 0.00 in0.0 mm 0.00 in0.0 mm 0.00 in0.0 mm
11:00 PM 82.9°F28.3°C 67.6°F19.8°C 60% 1.0 mph S1.6 kmh S 2.7 mph4.3 kmh 30.15 in1021.0 mb 0.00 in0.0 mm 0.00 in0.0 mm 0.00 in0.0 mm
10:50 PM 82.9°F28.3°C 68.1°F20.1°C 61% 1.3 mph SW2.1 kmh SW 2.1 mph3.4 kmh 30.15 in1021.0 mb 0.00 in0.0 mm 0.00 in0.0 mm 0.00 in0.0 mm
10:38 PM 83.1°F28.4°C 68.7°F20.4°C 62% 0.6 mph S1.0 kmh S 1.4 mph2.3 kmh 30.15 in1021.0 mb 0.00 in0.0 mm 0.00 in0.0 mm 0.00 in0.0 mm
10:30 PM 83.1°F28.4°C 68.7°F20.4°C 62% 1.1 mph SSW1.8 kmh SSW 1.0 mph1.6 kmh 30.15 in1021.0 mb 0.00 in0.0 mm 0.00 in0.0 mm 0.00 in0.0 mm
10:20 PM 83.3°F28.5°C 68.9°F20.5°C 62% 1.7 mph E2.7 kmh E 2.1 mph3.4 kmh 30.14 in1020.7 mb 0.00 in0.0 mm 0.00 in0.0 mm 0.00 in0.0 mm
10:10 PM 83.3°F28.5°C 68.9°F20.5°C 62% 2.1 mph ESE3.4 kmh ESE 2.4 mph3.9 kmh 30.14 in1020.7 mb 0.00 in0.0 mm 0.00 in0.0 mm 0.00 in0.0 mm
10:00 PM 83.3°F28.5°C 68.9°F20.5°C 62% 1.7 mph SE2.7 kmh SE 2.8 mph4.5 kmh 30.14 in1020.7 mb 0.00 in0.0 mm 0.00 in0.0 mm 0.00 in0.0 mm
09:50 PM 83.5°F28.6°C 69.1°F20.6°C 62% 1.1 mph S1.8 kmh S 3.2 mph5.1 kmh 30.14 in1020.7 mb 0.00 in0.0 mm 0.00 in0.0 mm 0.00 in0.0 mm
09:40 PM 83.5°F28.6°C 69.1°F20.6°C 62% 2.5 mph SE4.0 kmh SE 1.7 mph2.7 kmh 30.13 in1020.3 mb 0.00 in0.0 mm 0.00 in0.0 mm 0.00 in0.0 mm
09:30 PM 83.7°F28.7°C 69.2°F20.7°C 62% 3.4 mph SE5.5 kmh SE 3.8 mph6.1 kmh 30.13 in1020.3 mb 0.00 in0.0 mm 0.00 in0.0 mm 0.00 in0.0 mm
09:20 PM 83.8°F28.8°C 68.9°F20.5°C 61% 4.1 mph SSE6.6 kmh SSE 7.1 mph11.4 kmh 30.11 in1019.6 mb 0.00 in0.0 mm 0.00 in0.0 mm 0.00 in0.0 mm
09:10 PM 84.0°F28.9°C 69.6°F20.9°C 62% 3.9 mph ESE6.3 kmh ESE 3.6 mph5.8 kmh 30.11 in1019.6 mb 0.00 in0.0 mm 0.00 in0.0 mm 0.00 in0.0 mm
09:00 PM 84.4°F29.1°C 69.9°F21.1°C 62% 3.4 mph ESE5.5 kmh ESE 3.4 mph5.5 kmh 30.10 in1019.3 mb 0.00 in0.0 mm 0.00 in0.0 mm 0.00 in0.0 mm
08:50 PM 84.4°F29.1°C 70.8°F21.6°C 64% 4.3 mph SSW6.9 kmh SSW 2.8 mph4.5 kmh 30.10 in1019.3 mb 0.00 in0.0 mm 0.00 in0.0 mm 0.00 in0.0 mm
08:40 PM 84.9°F29.4°C 70.9°F21.6°C 63% 3.1 mph ENE5.0 kmh ENE 5.2 mph8.4 kmh 30.10 in1019.3 mb 0.00 in0.0 mm 0.00 in0.0 mm 0.00 in0.0 mm
08:30 PM 85.1°F29.5°C 70.1°F21.2°C 61% 3.7 mph W6.0 kmh W 6.8 mph10.9 kmh 30.10 in1019.3 mb 0.00 in0.0 mm 0.00 in0.0 mm 0.00 in0.0 mm
08:20 PM 85.5°F29.7°C 69.9°F21.1°C 60% 4.7 mph ENE7.6 kmh ENE 5.9 mph9.5 kmh 30.09 in1019.0 mb 0.00 in0.0 mm 0.00 in0.0 mm 0.00 in0.0 mm
08:10 PM 85.6°F29.8°C 69.6°F20.9°C 59% 3.6 mph SW5.8 kmh SW 3.5 mph5.6 kmh 30.09 in1019.0 mb 0.00 in0.0 mm 0.00 in0.0 mm 0.00 in0.0 mm
08:00 PM 85.6°F29.8°C 69.6°F20.9°C 59% 4.1 mph SSE6.6 kmh SSE 4.5 mph7.2 kmh 30.10 in1019.3 mb 0.00 in0.0 mm 0.00 in0.0 mm 0.00 in0.0 mm
07:50 PM 85.8°F29.9°C 70.3°F21.3°C 60% 4.3 mph SE6.9 kmh SE 6.0 mph9.7 kmh 30.10 in1019.3 mb 0.00 in0.0 mm 0.00 in0.0 mm 0.00 in0.0 mm
07:40 PM 85.8°F29.9°C 70.3°F21.3°C 60% 4.8 mph SE7.7 kmh SE 5.3 mph8.5 kmh 30.10 in1019.3 mb 0.00 in0.0 mm 0.00 in0.0 mm 0.00 in0.0 mm
07:30 PM 85.8°F29.9°C 70.8°F21.6°C 61% 4.4 mph SW7.1 kmh SW 5.3 mph8.5 kmh 30.10 in1019.3 mb 0.00 in0.0 mm 0.00 in0.0 mm 0.00 in0.0 mm
07:20 PM 86.0°F30.0°C 70.9°F21.6°C 61% 4.5 mph S7.2 kmh S 3.2 mph5.1 kmh 30.10 in1019.3 mb 0.00 in0.0 mm 0.00 in0.0 mm 0.00 in0.0 mm
07:10 PM 86.2°F30.1°C 72.1°F22.3°C 63% 4.0 mph WSW6.4 kmh WSW 5.8 mph9.3 kmh 30.10 in1019.3 mb 0.00 in0.0 mm 0.00 in0.0 mm 0.00 in0.0 mm
07:00 PM 86.0°F30.0°C 71.9°F22.2°C 63% 5.0 mph SE8.0 kmh SE 3.8 mph6.1 kmh 30.09 in1019.0 mb 0.00 in0.0 mm 0.00 in0.0 mm 0.00 in0.0 mm
06:50 PM 86.2°F30.1°C 72.1°F22.3°C 63% 5.4 mph SE8.7 kmh SE 6.3 mph10.1 kmh 30.09 in1019.0 mb 0.00 in0.0 mm 0.00 in0.0 mm 0.00 in0.0 mm
06:40 PM 86.4°F30.2°C 72.2°F22.3°C 63% 6.3 mph ESE10.1 kmh ESE 10.6 mph17.1 kmh 30.09 in1019.0 mb 0.00 in0.0 mm 0.00 in0.0 mm 0.00 in0.0 mm
06:30 PM 86.5°F30.3°C 72.4°F22.4°C 63% 5.4 mph E8.7 kmh E 9.8 mph15.8 kmh 30.09 in1019.0 mb 0.00 in0.0 mm 0.00 in0.0 mm 0.00 in0.0 mm
06:20 PM 86.7°F30.4°C 72.6°F22.6°C 63% 4.8 mph ENE7.7 kmh ENE 5.2 mph8.4 kmh 30.09 in1019.0 mb 0.00 in0.0 mm 0.00 in0.0 mm 0.00 in0.0 mm
06:10 PM 86.9°F30.5°C 72.7°F22.6°C 63% 5.6 mph NE9.0 kmh NE 2.7 mph4.3 kmh 30.09 in1019.0 mb 0.00 in0.0 mm 0.00 in0.0 mm 0.00 in0.0 mm
06:00 PM 87.3°F30.7°C 73.1°F22.8°C 63% 5.0 mph ESE8.0 kmh ESE 7.8 mph12.6 kmh 30.09 in1019.0 mb 0.00 in0.0 mm 0.00 in0.0 mm 0.00 in0.0 mm
05:50 PM 87.3°F30.7°C 73.1°F22.8°C 63% 6.7 mph ESE10.8 kmh ESE 10.8 mph17.4 kmh 30.09 in1019.0 mb 0.00 in0.0 mm 0.00 in0.0 mm 0.00 in0.0 mm
05:40 PM 87.3°F30.7°C 73.1°F22.8°C 63% 5.5 mph SE8.9 kmh SE 6.6 mph10.6 kmh 30.09 in1019.0 mb 0.00 in0.0 mm 0.00 in0.0 mm 0.00 in0.0 mm
05:30 PM 87.4°F30.8°C 72.8°F22.7°C 62% 6.6 mph SSW10.6 kmh SSW 4.3 mph6.9 kmh 30.09 in1019.0 mb 0.00 in0.0 mm 0.00 in0.0 mm 0.00 in0.0 mm
05:20 PM 87.6°F30.9°C 73.4°F23.0°C 63% 7.0 mph SE11.3 kmh SE 11.9 mph19.2 kmh 30.09 in1019.0 mb 0.00 in0.0 mm 0.00 in0.0 mm 0.00 in0.0 mm
05:10 PM 87.6°F30.9°C 72.9°F22.7°C 62% 7.1 mph SE11.4 kmh SE 9.5 mph15.3 kmh 30.09 in1019.0 mb 0.00 in0.0 mm 0.00 in0.0 mm 0.00 in0.0 mm
05:00 PM 88.0°F31.1°C 73.3°F22.9°C 62% 6.2 mph SE10.0 kmh SE 10.4 mph16.7 kmh 30.09 in1019.0 mb 0.00 in0.0 mm 0.00 in0.0 mm 0.00 in0.0 mm
04:50 PM 88.0°F31.1°C 73.3°F22.9°C 62% 5.8 mph WNW9.3 kmh WNW 3.1 mph5.0 kmh 30.09 in1019.0 mb 0.00 in0.0 mm 0.00 in0.0 mm 0.00 in0.0 mm
04:40 PM 88.0°F31.1°C 73.3°F22.9°C 62% 7.4 mph ESE11.9 kmh ESE 10.0 mph16.1 kmh 30.08 in1018.6 mb 0.00 in0.0 mm 0.00 in0.0 mm 0.00 in0.0 mm
04:30 PM 88.2°F31.2°C 73.5°F23.1°C 62% 5.9 mph ENE9.5 kmh ENE 4.8 mph7.7 kmh 30.08 in1018.6 mb 0.00 in0.0 mm 0.00 in0.0 mm 0.00 in0.0 mm
04:20 PM 88.3°F31.3°C 73.6°F23.1°C 62% 6.7 mph ESE10.8 kmh ESE 11.9 mph19.2 kmh 30.08 in1018.6 mb 0.00 in0.0 mm 0.00 in0.0 mm 0.00 in0.0 mm
04:10 PM 88.5°F31.4°C 73.3°F22.9°C 61% 6.2 mph ESE10.0 kmh ESE 9.8 mph15.8 kmh 30.08 in1018.6 mb 0.00 in0.0 mm 0.00 in0.0 mm 0.00 in0.0 mm
04:00 PM 88.7°F31.5°C 73.5°F23.1°C 61% 6.2 mph ENE10.0 kmh ENE 8.2 mph13.2 kmh 30.09 in1019.0 mb 0.00 in0.0 mm 0.00 in0.0 mm 0.00 in0.0 mm
03:50 PM 88.9°F31.6°C 73.6°F23.1°C 61% 7.0 mph E11.3 kmh E 7.8 mph12.6 kmh 30.09 in1019.0 mb 0.00 in0.0 mm 0.00 in0.0 mm 0.00 in0.0 mm
03:40 PM 89.1°F31.7°C 73.8°F23.2°C 61% 6.5 mph ESE10.5 kmh ESE 18.4 mph29.6 kmh 30.07 in1018.3 mb 0.00 in0.0 mm 0.00 in0.0 mm 0.00 in0.0 mm
03:30 PM 89.2°F31.8°C 74.0°F23.3°C 61% 5.2 mph NE8.4 kmh NE 5.2 mph8.4 kmh 30.07 in1018.3 mb 0.00 in0.0 mm 0.00 in0.0 mm 0.00 in0.0 mm
03:20 PM 89.4°F31.9°C 73.7°F23.2°C 60% 5.8 mph SW9.3 kmh SW 5.0 mph8.0 kmh 30.08 in1018.6 mb 0.00 in0.0 mm 0.00 in0.0 mm 0.00 in0.0 mm
03:10 PM 89.6°F32.0°C 73.8°F23.2°C 60% 5.5 mph ESE8.9 kmh ESE 7.1 mph11.4 kmh 30.08 in1018.6 mb 0.00 in0.0 mm 0.00 in0.0 mm 0.00 in0.0 mm
03:00 PM 89.8°F32.1°C 73.5°F23.1°C 59% 6.7 mph SE10.8 kmh SE 9.0 mph14.5 kmh 30.08 in1018.6 mb 0.00 in0.0 mm 0.00 in0.0 mm 0.00 in0.0 mm
02:50 PM 90.1°F32.3°C 73.8°F23.2°C 59% 6.2 mph SE10.0 kmh SE 16.3 mph26.2 kmh 30.08 in1018.6 mb 0.00 in0.0 mm 0.00 in0.0 mm 0.00 in0.0 mm
02:40 PM 90.9°F32.7°C 74.0°F23.3°C 58% 5.1 mph ESE8.2 kmh ESE 11.4 mph18.3 kmh 30.08 in1018.6 mb 0.00 in0.0 mm 0.00 in0.0 mm 0.00 in0.0 mm
02:30 PM 90.9°F32.7°C 74.0°F23.3°C 58% 5.0 mph SE8.0 kmh SE 6.0 mph9.7 kmh 30.08 in1018.6 mb 0.00 in0.0 mm 0.00 in0.0 mm 0.00 in0.0 mm
02:20 PM 91.0°F32.8°C 74.7°F23.7°C 59% 5.4 mph E8.7 kmh E 12.1 mph19.5 kmh 30.08 in1018.6 mb 0.00 in0.0 mm 0.00 in0.0 mm 0.00 in0.0 mm
02:10 PM 91.4°F33.0°C 74.5°F23.6°C 58% 5.9 mph ENE9.5 kmh ENE 7.4 mph11.9 kmh 30.08 in1018.6 mb 0.00 in0.0 mm 0.00 in0.0 mm 0.00 in0.0 mm
02:00 PM 91.9°F33.3°C 75.0°F23.9°C 58% 5.0 mph SE8.0 kmh SE 14.6 mph23.5 kmh 30.08 in1018.6 mb 0.00 in0.0 mm 0.00 in0.0 mm 0.00 in0.0 mm
01:50 PM 92.1°F33.4°C 74.6°F23.7°C 57% 5.6 mph N9.0 kmh N 8.7 mph14.0 kmh 30.08 in1018.6 mb 0.00 in0.0 mm 0.00 in0.0 mm 0.00 in0.0 mm
01:40 PM 92.5°F33.6°C 75.0°F23.9°C 57% 4.5 mph SE7.2 kmh SE 6.5 mph10.5 kmh 30.08 in1018.6 mb 0.00 in0.0 mm 0.00 in0.0 mm 0.00 in0.0 mm
01:30 PM 92.7°F33.7°C 75.1°F23.9°C 57% 5.7 mph ENE9.2 kmh ENE 8.7 mph14.0 kmh 30.08 in1018.6 mb 0.00 in0.0 mm 0.00 in0.0 mm 0.00 in0.0 mm
01:20 PM 92.7°F33.7°C 75.1°F23.9°C 57% 4.8 mph SE7.7 kmh SE 5.9 mph9.5 kmh 30.09 in1019.0 mb 0.00 in0.0 mm 0.00 in0.0 mm 0.00 in0.0 mm
01:10 PM 92.3°F33.5°C 74.8°F23.8°C 57% 5.1 mph SSE8.2 kmh SSE 6.7 mph10.8 kmh 30.09 in1019.0 mb 0.00 in0.0 mm 0.00 in0.0 mm 0.00 in0.0 mm
01:00 PM 92.5°F33.6°C 75.0°F23.9°C 57% 5.0 mph ESE8.0 kmh ESE 8.9 mph14.3 kmh 30.09 in1019.0 mb 0.00 in0.0 mm 0.00 in0.0 mm 0.00 in0.0 mm
12:50 PM 92.7°F33.7°C 75.1°F23.9°C 57% 4.2 mph SE6.8 kmh SE 5.0 mph8.0 kmh 30.09 in1019.0 mb 0.00 in0.0 mm 0.00 in0.0 mm 0.00 in0.0 mm
12:40 PM 92.7°F33.7°C 74.6°F23.7°C 56% 4.8 mph E7.7 kmh E 4.4 mph7.1 kmh 30.09 in1019.0 mb 0.00 in0.0 mm 0.00 in0.0 mm 0.00 in0.0 mm
12:30 PM 92.7°F33.7°C 75.1°F23.9°C 57% 4.4 mph ESE7.1 kmh ESE 8.3 mph13.4 kmh 30.09 in1019.0 mb 0.00 in0.0 mm 0.00 in0.0 mm 0.00 in0.0 mm
12:20 PM 92.7°F33.7°C 75.1°F23.9°C 57% 4.3 mph ESE6.9 kmh ESE 7.6 mph12.2 kmh 30.08 in1018.6 mb 0.00 in0.0 mm 0.00 in0.0 mm 0.00 in0.0 mm
12:10 PM 92.7°F33.7°C 74.6°F23.7°C 56% 5.0 mph SSE8.0 kmh SSE 9.4 mph15.1 kmh 30.08 in1018.6 mb 0.00 in0.0 mm 0.00 in0.0 mm 0.00 in0.0 mm
12:00 PM 92.7°F33.7°C 74.1°F23.4°C 55% 4.9 mph ESE7.9 kmh ESE 4.8 mph7.7 kmh 30.10 in1019.3 mb 0.00 in0.0 mm 0.00 in0.0 mm 0.00 in0.0 mm
11:50 AM 93.0°F33.9°C 74.9°F23.8°C 56% 4.5 mph SE7.2 kmh SE 7.4 mph11.9 kmh 30.10 in1019.3 mb 0.00 in0.0 mm 0.00 in0.0 mm 0.00 in0.0 mm
11:40 AM 93.0°F33.9°C 74.4°F23.6°C 55% 4.6 mph ESE7.4 kmh ESE 8.7 mph14.0 kmh 30.11 in1019.6 mb 0.00 in0.0 mm 0.00 in0.0 mm 0.00 in0.0 mm
11:30 AM 93.4°F34.1°C 74.7°F23.7°C 55% 4.4 mph SE7.1 kmh SE 4.6 mph7.4 kmh 30.11 in1019.6 mb 0.00 in0.0 mm 0.00 in0.0 mm 0.00 in0.0 mm
11:20 AM 93.6°F34.2°C 74.4°F23.6°C 54% 4.2 mph SSE6.8 kmh SSE 2.8 mph4.5 kmh 30.12 in1020.0 mb 0.00 in0.0 mm 0.00 in0.0 mm 0.00 in0.0 mm
11:10 AM 93.6°F34.2°C 73.8°F23.2°C 53% 4.6 mph ESE7.4 kmh ESE 9.4 mph15.1 kmh 30.12 in1020.0 mb 0.00 in0.0 mm 0.00 in0.0 mm 0.00 in0.0 mm
11:00 AM 93.7°F34.3°C 74.0°F23.3°C 53% 3.9 mph SE6.3 kmh SE 2.7 mph4.3 kmh 30.12 in1020.0 mb 0.00 in0.0 mm 0.00 in0.0 mm 0.00 in0.0 mm
10:50 AM 93.9°F34.4°C 74.7°F23.7°C 54% 3.0 mph NE4.8 kmh NE 4.3 mph6.9 kmh 30.12 in1020.0 mb 0.00 in0.0 mm 0.00 in0.0 mm 0.00 in0.0 mm
10:40 AM 94.1°F34.5°C 74.3°F23.5°C 53% 2.4 mph NE3.9 kmh NE 4.7 mph7.6 kmh 30.13 in1020.3 mb 0.00 in0.0 mm 0.00 in0.0 mm 0.00 in0.0 mm
10:30 AM 94.3°F34.6°C 73.9°F23.3°C 52% 2.0 mph S3.2 kmh S 3.0 mph4.8 kmh 30.13 in1020.3 mb 0.00 in0.0 mm 0.00 in0.0 mm 0.00 in0.0 mm
10:20 AM 93.7°F34.3°C 73.4°F23.0°C 52% 2.7 mph SE4.3 kmh SE 2.7 mph4.3 kmh 30.13 in1020.3 mb 0.00 in0.0 mm 0.00 in0.0 mm 0.00 in0.0 mm
10:10 AM 93.7°F34.3°C 72.8°F22.7°C 51% 2.7 mph SW4.3 kmh SW 3.5 mph5.6 kmh 30.13 in1020.3 mb 0.00 in0.0 mm 0.00 in0.0 mm 0.00 in0.0 mm
10:00 AM 93.7°F34.3°C 72.2°F22.3°C 50% 2.5 mph ESE4.0 kmh ESE 5.1 mph8.2 kmh 30.12 in1020.0 mb 0.00 in0.0 mm 0.00 in0.0 mm 0.00 in0.0 mm
09:50 AM 94.3°F34.6°C 72.1°F22.3°C 49% 2.6 mph ENE4.2 kmh ENE 4.2 mph6.8 kmh 30.12 in1020.0 mb 0.00 in0.0 mm 0.00 in0.0 mm 0.00 in0.0 mm
09:40 AM 93.7°F34.3°C 67.1°F19.5°C 42% 2.5 mph S4.0 kmh S 3.7 mph6.0 kmh 30.13 in1020.3 mb 0.00 in0.0 mm 0.00 in0.0 mm 0.00 in0.0 mm
09:30 AM 93.0°F33.9°C 67.8°F19.9°C 44% 2.1 mph S3.4 kmh S 2.7 mph4.3 kmh 30.13 in1020.3 mb 0.00 in0.0 mm 0.00 in0.0 mm 0.00 in0.0 mm
09:20 AM 92.8°F33.8°C 68.9°F20.5°C 46% 2.3 mph NNW3.7 kmh NNW 1.6 mph2.6 kmh 30.13 in1020.3 mb 0.00 in0.0 mm 0.00 in0.0 mm 0.00 in0.0 mm
09:10 AM 91.9°F33.3°C 69.4°F20.8°C 48% 2.4 mph NNW3.9 kmh NNW 2.2 mph3.5 kmh 30.13 in1020.3 mb 0.00 in0.0 mm 0.00 in0.0 mm 0.00 in0.0 mm
09:00 AM 91.2°F32.9°C 71.1°F21.7°C 52% 1.8 mph SW2.9 kmh SW 2.8 mph4.5 kmh 30.13 in1020.3 mb 0.00 in0.0 mm 0.00 in0.0 mm 0.00 in0.0 mm
08:50 AM 90.9°F32.7°C 71.9°F22.2°C 54% 1.9 mph SE3.1 kmh SE 2.9 mph4.7 kmh 30.13 in1020.3 mb 0.00 in0.0 mm 0.00 in0.0 mm 0.00 in0.0 mm
08:40 AM 90.5°F32.5°C 72.6°F22.6°C 56% 1.5 mph S2.4 kmh S 2.8 mph4.5 kmh 30.14 in1020.7 mb 0.00 in0.0 mm 0.00 in0.0 mm 0.00 in0.0 mm
08:30 AM 89.4°F31.9°C 73.2°F22.9°C 59% 1.1 mph WNW1.8 kmh WNW 4.4 mph7.1 kmh 30.14 in1020.7 mb 0.00 in0.0 mm 0.00 in0.0 mm 0.00 in0.0 mm
08:20 AM 88.7°F31.5°C 73.5°F23.1°C 61% 1.3 mph ENE2.1 kmh ENE -- 30.13 in1020.3 mb 0.00 in0.0 mm 0.00 in0.0 mm 0.00 in0.0 mm
08:10 AM 87.6°F30.9°C 72.9°F22.7°C 62% 2.1 mph WSW3.4 kmh WSW 1.9 mph3.1 kmh 30.13 in1020.3 mb 0.00 in0.0 mm 0.00 in0.0 mm 0.00 in0.0 mm
08:00 AM 87.1°F30.6°C 72.9°F22.7°C 63% 2.1 mph SE3.4 kmh SE 5.3 mph8.5 kmh 30.13 in1020.3 mb 0.00 in0.0 mm 0.00 in0.0 mm 0.00 in0.0 mm
07:50 AM 86.2°F30.1°C 73.4°F23.0°C 66% 1.9 mph S3.1 kmh S 5.2 mph8.4 kmh 30.13 in1020.3 mb 0.00 in0.0 mm 0.00 in0.0 mm 0.00 in0.0 mm
07:40 AM 85.1°F29.5°C 73.3°F22.9°C 68% 2.4 mph SE3.9 kmh SE 1.7 mph2.7 kmh 30.13 in1020.3 mb 0.00 in0.0 mm 0.00 in0.0 mm 0.00 in0.0 mm
07:30 AM 84.2°F29.0°C 73.3°F22.9°C 70% 2.3 mph SE3.7 kmh SE 3.2 mph5.1 kmh 30.13 in1020.3 mb 0.00 in0.0 mm 0.00 in0.0 mm 0.00 in0.0 mm
07:20 AM 83.3°F28.5°C 73.3°F22.9°C 72% 2.1 mph SSE3.4 kmh SSE 6.2 mph10.0 kmh 30.12 in1020.0 mb 0.00 in0.0 mm 0.00 in0.0 mm 0.00 in0.0 mm
07:10 AM 82.2°F27.9°C 72.3°F22.4°C 72% 1.7 mph E2.7 kmh E 4.3 mph6.9 kmh 30.12 in1020.0 mb 0.00 in0.0 mm 0.00 in0.0 mm 0.00 in0.0 mm
07:00 AM 82.6°F28.1°C 73.0°F22.8°C 73% 1.2 mph SE1.9 kmh SE 1.8 mph2.9 kmh 30.12 in1020.0 mb 0.00 in0.0 mm 0.00 in0.0 mm 0.00 in0.0 mm
06:50 AM 81.5°F27.5°C 72.4°F22.4°C 74% 1.5 mph SW2.4 kmh SW 1.3 mph2.1 kmh 30.12 in1020.0 mb 0.00 in0.0 mm 0.00 in0.0 mm 0.00 in0.0 mm
06:40 AM 80.6°F27.0°C 71.9°F22.2°C 75% 1.5 mph SE2.4 kmh SE 1.4 mph2.3 kmh 30.11 in1019.6 mb 0.00 in0.0 mm 0.00 in0.0 mm 0.00 in0.0 mm
06:30 AM 79.3°F26.3°C 71.5°F21.9°C 77% 2.2 mph E3.5 kmh E 2.6 mph4.2 kmh 30.11 in1019.6 mb 0.00 in0.0 mm 0.00 in0.0 mm 0.00 in0.0 mm
06:20 AM 78.6°F25.9°C 70.8°F21.6°C 77% 1.1 mph SE1.8 kmh SE 4.6 mph7.4 kmh 30.12 in1020.0 mb 0.00 in0.0 mm 0.00 in0.0 mm 0.00 in0.0 mm
06:10 AM 78.4°F25.8°C 70.6°F21.4°C 77% 1.5 mph W2.4 kmh W 2.8 mph4.5 kmh 30.12 in1020.0 mb 0.00 in0.0 mm 0.00 in0.0 mm 0.00 in0.0 mm
06:00 AM 78.4°F25.8°C 70.6°F21.4°C 77% 1.5 mph S2.4 kmh S -- 30.10 in1019.3 mb 0.00 in0.0 mm 0.00 in0.0 mm 0.00 in0.0 mm
05:50 AM 78.4°F25.8°C 70.6°F21.4°C 77% 1.5 mph SE2.4 kmh SE 2.0 mph3.2 kmh 30.10 in1019.3 mb 0.00 in0.0 mm 0.00 in0.0 mm 0.00 in0.0 mm
05:40 AM 78.4°F25.8°C 70.2°F21.2°C 76% 0.8 mph W1.3 kmh W 2.8 mph4.5 kmh 30.10 in1019.3 mb 0.00 in0.0 mm 0.00 in0.0 mm 0.00 in0.0 mm
05:30 AM 78.6°F25.9°C 70.4°F21.3°C 76% 0.7 mph SSE1.1 kmh SSE 1.7 mph2.7 kmh 30.10 in1019.3 mb 0.00 in0.0 mm 0.00 in0.0 mm 0.00 in0.0 mm
05:20 AM 78.6°F25.9°C 70.4°F21.3°C 76% 0.7 mph S1.1 kmh S 1.6 mph2.6 kmh 30.10 in1019.3 mb 0.00 in0.0 mm 0.00 in0.0 mm 0.00 in0.0 mm
05:10 AM 78.6°F25.9°C 70.4°F21.3°C 76% 1.1 mph WSW1.8 kmh WSW -- 30.10 in1019.3 mb 0.00 in0.0 mm 0.00 in0.0 mm 0.00 in0.0 mm
05:00 AM 78.6°F25.9°C 70.4°F21.3°C 76% 0.7 mph NNE1.1 kmh NNE 2.2 mph3.5 kmh 30.09 in1019.0 mb 0.00 in0.0 mm 0.00 in0.0 mm 0.00 in0.0 mm
04:50 AM 78.6°F25.9°C 70.4°F21.3°C 76% 0.9 mph S1.4 kmh S 1.4 mph2.3 kmh 30.09 in1019.0 mb 0.00 in0.0 mm 0.00 in0.0 mm 0.00 in0.0 mm
04:40 AM 78.8°F26.0°C 70.6°F21.4°C 76% 1.1 mph SSE1.8 kmh SSE -- 30.09 in1019.0 mb 0.00 in0.0 mm 0.00 in0.0 mm 0.00 in0.0 mm
04:30 AM 78.8°F26.0°C 70.6°F21.4°C 76% 1.1 mph SSW1.8 kmh SSW 1.6 mph2.6 kmh 30.09 in1019.0 mb 0.00 in0.0 mm 0.00 in0.0 mm 0.00 in0.0 mm
04:20 AM 79.0°F26.1°C 70.7°F21.5°C 76% 0.9 mph WSW1.4 kmh WSW 2.0 mph3.2 kmh 30.09 in1019.0 mb 0.00 in0.0 mm 0.00 in0.0 mm 0.00 in0.0 mm
04:10 AM 79.0°F26.1°C 70.4°F21.3°C 75% 0.7 mph SW1.1 kmh SW 1.7 mph2.7 kmh 30.09 in1019.0 mb 0.00 in0.0 mm 0.00 in0.0 mm 0.00 in0.0 mm
04:00 AM 79.0°F26.1°C 70.4°F21.3°C 75% 0.9 mph SW1.4 kmh SW 2.0 mph3.2 kmh 30.08 in1018.6 mb 0.00 in0.0 mm 0.00 in0.0 mm 0.00 in0.0 mm
03:50 AM 79.0°F26.1°C 70.4°F21.3°C 75% 0.9 mph SSW1.4 kmh SSW 2.4 mph3.9 kmh 30.08 in1018.6 mb 0.00 in0.0 mm 0.00 in0.0 mm 0.00 in0.0 mm
03:40 AM 79.0°F26.1°C 70.4°F21.3°C 75% 0.9 mph WNW1.4 kmh WNW 1.4 mph2.3 kmh 30.09 in1019.0 mb 0.00 in0.0 mm 0.00 in0.0 mm 0.00 in0.0 mm
03:30 AM 79.2°F26.2°C 70.5°F21.4°C 75% 0.4 mph S0.6 kmh S -- 30.09 in1019.0 mb 0.00 in0.0 mm 0.00 in0.0 mm 0.00 in0.0 mm
03:20 AM 79.2°F26.2°C 70.5°F21.4°C 75% 0.4 mph WSW0.6 kmh WSW -- 30.10 in1019.3 mb 0.00 in0.0 mm 0.00 in0.0 mm 0.00 in0.0 mm
03:10 AM 79.3°F26.3°C 70.7°F21.5°C 75% 0.6 mph SW1.0 kmh SW -- 30.10 in1019.3 mb 0.00 in0.0 mm 0.00 in0.0 mm 0.00 in0.0 mm
03:00 AM 79.3°F26.3°C 70.7°F21.5°C 75% 0.8 mph SSW1.3 kmh SSW -- 30.10 in1019.3 mb 0.00 in0.0 mm 0.00 in0.0 mm 0.00 in0.0 mm
02:50 AM 79.3°F26.3°C 70.3°F21.3°C 74% 1.2 mph SSW1.9 kmh SSW 2.0 mph3.2 kmh 30.10 in1019.3 mb 0.00 in0.0 mm 0.00 in0.0 mm 0.00 in0.0 mm
02:40 AM 79.3°F26.3°C 70.3°F21.3°C 74% 1.0 mph WSW1.6 kmh WSW -- 30.10 in1019.3 mb 0.00 in0.0 mm 0.00 in0.0 mm 0.00 in0.0 mm
02:30 AM 79.3°F26.3°C 70.7°F21.5°C 75% 0.8 mph W1.3 kmh W 1.6 mph2.6 kmh 30.10 in1019.3 mb 0.00 in0.0 mm 0.00 in0.0 mm 0.00 in0.0 mm
02:20 AM 79.3°F26.3°C 70.7°F21.5°C 75% 0.9 mph SE1.4 kmh SE -- 30.10 in1019.3 mb 0.00 in0.0 mm 0.00 in0.0 mm 0.00 in0.0 mm
02:10 AM 79.3°F26.3°C 70.7°F21.5°C 75% 1.2 mph SE1.9 kmh SE 3.3 mph5.3 kmh 30.10 in1019.3 mb 0.00 in0.0 mm 0.00 in0.0 mm 0.00 in0.0 mm
02:00 AM 79.5°F26.4°C 70.9°F21.6°C 75% 0.7 mph ESE1.1 kmh ESE 1.8 mph2.9 kmh 30.09 in1019.0 mb 0.00 in0.0 mm 0.00 in0.0 mm 0.00 in0.0 mm
01:50 AM 79.5°F26.4°C 70.5°F21.4°C 74% 1.9 mph SSE3.1 kmh SSE 1.9 mph3.1 kmh 30.09 in1019.0 mb 0.00 in0.0 mm 0.00 in0.0 mm 0.00 in0.0 mm
01:40 AM 79.7°F26.5°C 70.7°F21.5°C 74% 1.5 mph S2.4 kmh S 3.2 mph5.1 kmh 30.09 in1019.0 mb 0.00 in0.0 mm 0.00 in0.0 mm 0.00 in0.0 mm
01:30 AM 79.7°F26.5°C 70.7°F21.5°C 74% 1.4 mph SSE2.3 kmh SSE 2.5 mph4.0 kmh 30.09 in1019.0 mb 0.00 in0.0 mm 0.00 in0.0 mm 0.00 in0.0 mm
01:20 AM 79.7°F26.5°C 70.7°F21.5°C 74% 2.0 mph SSE3.2 kmh SSE 1.7 mph2.7 kmh 30.10 in1019.3 mb 0.00 in0.0 mm 0.00 in0.0 mm 0.00 in0.0 mm
01:10 AM 79.9°F26.6°C 70.8°F21.6°C 74% 2.6 mph WSW4.2 kmh WSW 3.9 mph6.3 kmh 30.10 in1019.3 mb 0.00 in0.0 mm 0.00 in0.0 mm 0.00 in0.0 mm
01:00 AM 80.1°F26.7°C 70.6°F21.4°C 73% 1.9 mph ESE3.1 kmh ESE 4.1 mph6.6 kmh 30.10 in1019.3 mb 0.00 in0.0 mm 0.00 in0.0 mm 0.00 in0.0 mm
12:50 AM 80.1°F26.7°C 70.6°F21.4°C 73% 1.1 mph SE1.8 kmh SE 1.9 mph3.1 kmh 30.10 in1019.3 mb 0.00 in0.0 mm 0.00 in0.0 mm 0.00 in0.0 mm
12:40 AM 80.2°F26.8°C 70.4°F21.3°C 72% 1.6 mph S2.6 kmh S -- 30.11 in1019.6 mb 0.00 in0.0 mm 0.00 in0.0 mm 0.00 in0.0 mm
12:30 AM 80.2°F26.8°C 70.4°F21.3°C 72% 2.0 mph SE3.2 kmh SE 1.2 mph1.9 kmh 30.11 in1019.6 mb 0.00 in0.0 mm 0.00 in0.0 mm 0.00 in0.0 mm
12:20 AM 80.4°F26.9°C 70.1°F21.2°C 71% 2.2 mph SSE3.5 kmh SSE 3.7 mph6.0 kmh 30.12 in1020.0 mb 0.00 in0.0 mm 0.00 in0.0 mm 0.00 in0.0 mm
12:10 AM 80.8°F27.1°C 70.1°F21.2°C 70% 1.3 mph SE2.1 kmh SE -- 30.12 in1020.0 mb 0.00 in0.0 mm 0.00 in0.0 mm 0.00 in0.0 mm
12:00 AM 80.8°F27.1°C 69.6°F20.9°C 69% 1.5 mph W2.4 kmh W 2.2 mph3.5 kmh 30.13 in1020.3 mb 0.00 in0.0 mm 0.00 in0.0 mm 0.00 in0.0 mm